Terminal Aerodrome Forecast
Issued by NWS

Home | Current Version | Previous Version | Text Only | Print | Product List | Glossary On
Versions: 1 2 3 4 5 6 7 8 9 10 11 12 13 14 15 16 17 18 19 20 21 22 23 24
000
FTUS42 KJAX 211801 AAA
TAFVQQ
TAF AMD
KVQQ 211801Z 2118/2218 15010G15KT P6SM SCT025 BKN035
     FM212100 11010G15KT P6SM SCT025 SCT035
     FM220000 12004KT P6SM SCT015
     FM220600 00000KT 2SM BR BKN008
     FM220900 00000KT 1/2SM FG BKN004 OVC008
     FM221500 11008KT P6SM BKN015 BKN025=

USA.gov is the U.S. government's official web portal to all federal, state and local government web resources and services.